sensor_id;sensor_type;location;lat;lon;timestamp;P1;durP1;ratioP1;P2;durP2;ratioP2
74267;SDS011;62638;51.362;12.472;2023-04-21T00:01:05;24.17;;;8.93;;
74267;SDS011;62638;51.362;12.472;2023-04-21T00:03:32;20.08;;;9.77;;
74267;SDS011;62638;51.362;12.472;2023-04-21T00:06:01;20.75;;;9.23;;
74267;SDS011;62638;51.362;12.472;2023-04-21T00:08:27;25.17;;;9.63;;
74267;SDS011;62638;51.362;12.472;2023-04-21T00:10:52;22.42;;;10.55;;
74267;SDS011;62638;51.362;12.472;2023-04-21T00:13:18;14.90;;;8.40;;
74267;SDS011;62638;51.362;12.472;2023-04-21T00:15:43;18.07;;;9.80;;
74267;SDS011;62638;51.362;12.472;2023-04-21T00:18:08;24.70;;;10.67;;
74267;SDS011;62638;51.362;12.472;2023-04-21T00:20:34;22.23;;;8.57;;
74267;SDS011;62638;51.362;12.472;2023-04-21T00:23:00;19.38;;;9.02;;
74267;SDS011;62638;51.362;12.472;2023-04-21T00:25:25;25.67;;;9.82;;
74267;SDS011;62638;51.362;12.472;2023-04-21T00:27:51;23.58;;;9.00;;
74267;SDS011;62638;51.362;12.472;2023-04-21T00:30:16;27.30;;;9.70;;
74267;SDS011;62638;51.362;12.472;2023-04-21T00:32:41;18.63;;;9.00;;
74267;SDS011;62638;51.362;12.472;2023-04-21T00:35:07;19.65;;;9.30;;
74267;SDS011;62638;51.362;12.472;2023-04-21T00:37:33;20.42;;;10.40;;
74267;SDS011;62638;51.362;12.472;2023-04-21T00:39:58;22.98;;;11.07;;
74267;SDS011;62638;51.362;12.472;2023-04-21T00:42:24;26.73;;;10.05;;
74267;SDS011;62638;51.362;12.472;2023-04-21T00:44:49;11.77;;;8.27;;
74267;SDS011;62638;51.362;12.472;2023-04-21T00:47:16;20.25;;;10.07;;
74267;SDS011;62638;51.362;12.472;2023-04-21T00:49:41;23.58;;;10.05;;
74267;SDS011;62638;51.362;12.472;2023-04-21T00:52:07;19.00;;;10.57;;
74267;SDS011;62638;51.362;12.472;2023-04-21T00:54:33;13.00;;;7.45;;
74267;SDS011;62638;51.362;12.472;2023-04-21T00:56:59;21.15;;;10.68;;
74267;SDS011;62638;51.362;12.472;2023-04-21T00:59:26;22.50;;;10.00;;
74267;SDS011;62638;51.362;12.472;2023-04-21T01:01:51;19.38;;;10.50;;
74267;SDS011;62638;51.362;12.472;2023-04-21T01:04:16;28.60;;;10.37;;
74267;SDS011;62638;51.362;12.472;2023-04-21T01:06:42;28.30;;;11.23;;
74267;SDS011;62638;51.362;12.472;2023-04-21T01:09:07;16.50;;;8.48;;
74267;SDS011;62638;51.362;12.472;2023-04-21T01:11:32;26.87;;;11.47;;
74267;SDS011;62638;51.362;12.472;2023-04-21T01:13:58;21.35;;;10.07;;
74267;SDS011;62638;51.362;12.472;2023-04-21T01:16:23;19.02;;;10.07;;
74267;SDS011;62638;51.362;12.472;2023-04-21T01:18:49;21.93;;;9.90;;
74267;SDS011;62638;51.362;12.472;2023-04-21T01:23:43;16.30;;;8.95;;
74267;SDS011;62638;51.362;12.472;2023-04-21T01:26:08;23.65;;;10.07;;
74267;SDS011;62638;51.362;12.472;2023-04-21T01:28:34;16.33;;;8.10;;
74267;SDS011;62638;51.362;12.472;2023-04-21T01:31:00;21.75;;;9.90;;
74267;SDS011;62638;51.362;12.472;2023-04-21T01:33:26;22.25;;;10.55;;
74267;SDS011;62638;51.362;12.472;2023-04-21T01:35:51;25.13;;;10.73;;
74267;SDS011;62638;51.362;12.472;2023-04-21T01:38:17;21.30;;;9.90;;
74267;SDS011;62638;51.362;12.472;2023-04-21T01:40:43;15.82;;;7.63;;
74267;SDS011;62638;51.362;12.472;2023-04-21T01:43:16;25.38;;;11.15;;
74267;SDS011;62638;51.362;12.472;2023-04-21T01:45:43;19.60;;;9.60;;
74267;SDS011;62638;51.362;12.472;2023-04-21T01:48:08;18.02;;;9.48;;
74267;SDS011;62638;51.362;12.472;2023-04-21T01:50:34;24.55;;;8.77;;
74267;SDS011;62638;51.362;12.472;2023-04-21T01:52:59;17.50;;;9.07;;
74267;SDS011;62638;51.362;12.472;2023-04-21T01:55:25;20.10;;;9.00;;
74267;SDS011;62638;51.362;12.472;2023-04-21T01:57:50;27.27;;;11.17;;
74267;SDS011;62638;51.362;12.472;2023-04-21T02:00:15;24.47;;;10.63;;
74267;SDS011;62638;51.362;12.472;2023-04-21T02:02:41;21.20;;;9.52;;
74267;SDS011;62638;51.362;12.472;2023-04-21T02:05:06;20.42;;;7.55;;
74267;SDS011;62638;51.362;12.472;2023-04-21T02:07:32;11.20;;;6.90;;
74267;SDS011;62638;51.362;12.472;2023-04-21T02:09:57;21.45;;;9.63;;
74267;SDS011;62638;51.362;12.472;2023-04-21T02:12:22;22.13;;;10.07;;
74267;SDS011;62638;51.362;12.472;2023-04-21T02:14:47;18.30;;;9.90;;
74267;SDS011;62638;51.362;12.472;2023-04-21T02:17:13;26.70;;;10.85;;
74267;SDS011;62638;51.362;12.472;2023-04-21T02:19:38;21.73;;;9.32;;
74267;SDS011;62638;51.362;12.472;2023-04-21T02:22:04;17.95;;;9.20;;
74267;SDS011;62638;51.362;12.472;2023-04-21T02:24:32;18.55;;;8.98;;
74267;SDS011;62638;51.362;12.472;2023-04-21T02:26:57;20.80;;;8.82;;
74267;SDS011;62638;51.362;12.472;2023-04-21T02:29:23;21.07;;;10.57;;
74267;SDS011;62638;51.362;12.472;2023-04-21T02:31:48;21.33;;;9.95;;
74267;SDS011;62638;51.362;12.472;2023-04-21T02:34:13;25.73;;;9.63;;
74267;SDS011;62638;51.362;12.472;2023-04-21T02:36:39;16.97;;;9.50;;
74267;SDS011;62638;51.362;12.472;2023-04-21T02:39:04;24.42;;;9.35;;
74267;SDS011;62638;51.362;12.472;2023-04-21T02:41:29;20.40;;;9.10;;
74267;SDS011;62638;51.362;12.472;2023-04-21T02:43:55;22.20;;;8.75;;
74267;SDS011;62638;51.362;12.472;2023-04-21T02:46:20;17.43;;;8.30;;
74267;SDS011;62638;51.362;12.472;2023-04-21T02:48:45;21.23;;;9.43;;
74267;SDS011;62638;51.362;12.472;2023-04-21T02:51:11;26.60;;;10.50;;
74267;SDS011;62638;51.362;12.472;2023-04-21T02:53:37;16.02;;;7.43;;
74267;SDS011;62638;51.362;12.472;2023-04-21T02:56:06;20.55;;;8.32;;
74267;SDS011;62638;51.362;12.472;2023-04-21T02:58:33;21.10;;;9.63;;
74267;SDS011;62638;51.362;12.472;2023-04-21T03:00:59;22.23;;;7.80;;
74267;SDS011;62638;51.362;12.472;2023-04-21T03:03:24;23.60;;;9.20;;
74267;SDS011;62638;51.362;12.472;2023-04-21T03:05:54;16.27;;;8.20;;
74267;SDS011;62638;51.362;12.472;2023-04-21T03:08:21;24.20;;;8.65;;
74267;SDS011;62638;51.362;12.472;2023-04-21T03:10:46;16.50;;;9.07;;
74267;SDS011;62638;51.362;12.472;2023-04-21T03:13:11;17.10;;;9.20;;
74267;SDS011;62638;51.362;12.472;2023-04-21T03:15:36;19.67;;;9.23;;
74267;SDS011;62638;51.362;12.472;2023-04-21T03:18:02;11.20;;;6.47;;
74267;SDS011;62638;51.362;12.472;2023-04-21T03:20:27;18.70;;;8.53;;
74267;SDS011;62638;51.362;12.472;2023-04-21T03:22:52;20.33;;;8.43;;
74267;SDS011;62638;51.362;12.472;2023-04-21T03:25:18;16.98;;;8.40;;
74267;SDS011;62638;51.362;12.472;2023-04-21T03:27:43;14.23;;;7.30;;
74267;SDS011;62638;51.362;12.472;2023-04-21T03:30:08;12.47;;;6.63;;
74267;SDS011;62638;51.362;12.472;2023-04-21T03:32:34;21.60;;;8.43;;
74267;SDS011;62638;51.362;12.472;2023-04-21T03:34:59;15.88;;;6.72;;
74267;SDS011;62638;51.362;12.472;2023-04-21T03:37:25;10.17;;;6.27;;
74267;SDS011;62638;51.362;12.472;2023-04-21T03:39:50;15.33;;;8.37;;
74267;SDS011;62638;51.362;12.472;2023-04-21T03:42:15;18.77;;;7.93;;
74267;SDS011;62638;51.362;12.472;2023-04-21T03:44:40;6.80;;;4.53;;
74267;SDS011;62638;51.362;12.472;2023-04-21T03:47:06;10.77;;;5.90;;
74267;SDS011;62638;51.362;12.472;2023-04-21T03:49:34;19.15;;;7.82;;
74267;SDS011;62638;51.362;12.472;2023-04-21T03:51:59;17.15;;;7.78;;
74267;SDS011;62638;51.362;12.472;2023-04-21T03:54:25;13.03;;;6.20;;
74267;SDS011;62638;51.362;12.472;2023-04-21T03:56:50;13.93;;;4.73;;
74267;SDS011;62638;51.362;12.472;2023-04-21T03:59:15;14.67;;;7.97;;
74267;SDS011;62638;51.362;12.472;2023-04-21T04:01:40;14.45;;;6.97;;
74267;SDS011;62638;51.362;12.472;2023-04-21T04:04:06;19.48;;;7.55;;
74267;SDS011;62638;51.362;12.472;2023-04-21T04:06:31;14.55;;;6.65;;
74267;SDS011;62638;51.362;12.472;2023-04-21T04:08:57;9.88;;;6.05;;
74267;SDS011;62638;51.362;12.472;2023-04-21T04:11:22;15.63;;;7.50;;
74267;SDS011;62638;51.362;12.472;2023-04-21T04:13:47;16.43;;;7.53;;
74267;SDS011;62638;51.362;12.472;2023-04-21T04:16:13;11.98;;;7.30;;
74267;SDS011;62638;51.362;12.472;2023-04-21T04:18:38;15.00;;;6.70;;
74267;SDS011;62638;51.362;12.472;2023-04-21T04:21:04;16.53;;;7.50;;
74267;SDS011;62638;51.362;12.472;2023-04-21T04:23:31;12.65;;;6.60;;
74267;SDS011;62638;51.362;12.472;2023-04-21T04:25:56;16.25;;;7.35;;
74267;SDS011;62638;51.362;12.472;2023-04-21T04:28:21;11.17;;;5.20;;
74267;SDS011;62638;51.362;12.472;2023-04-21T04:30:47;15.13;;;6.87;;
74267;SDS011;62638;51.362;12.472;2023-04-21T04:33:12;15.73;;;6.93;;
74267;SDS011;62638;51.362;12.472;2023-04-21T04:35:38;14.48;;;6.85;;
74267;SDS011;62638;51.362;12.472;2023-04-21T04:38:03;17.10;;;7.30;;
74267;SDS011;62638;51.362;12.472;2023-04-21T04:40:28;17.83;;;6.93;;
74267;SDS011;62638;51.362;12.472;2023-04-21T04:42:54;17.17;;;7.32;;
74267;SDS011;62638;51.362;12.472;2023-04-21T04:45:19;15.30;;;7.50;;
74267;SDS011;62638;51.362;12.472;2023-04-21T04:47:46;17.20;;;7.82;;
74267;SDS011;62638;51.362;12.472;2023-04-21T04:50:12;14.13;;;6.45;;
74267;SDS011;62638;51.362;12.472;2023-04-21T04:52:37;19.43;;;8.33;;
74267;SDS011;62638;51.362;12.472;2023-04-21T04:55:03;13.65;;;7.05;;
74267;SDS011;62638;51.362;12.472;2023-04-21T04:57:29;19.33;;;7.28;;
74267;SDS011;62638;51.362;12.472;2023-04-21T04:59:55;18.05;;;8.02;;
74267;SDS011;62638;51.362;12.472;2023-04-21T05:02:20;16.23;;;8.02;;
74267;SDS011;62638;51.362;12.472;2023-04-21T05:04:47;21.23;;;6.90;;
74267;SDS011;62638;51.362;12.472;2023-04-21T05:07:15;14.60;;;7.15;;
74267;SDS011;62638;51.362;12.472;2023-04-21T05:09:41;13.27;;;7.37;;
74267;SDS011;62638;51.362;12.472;2023-04-21T05:12:06;12.90;;;6.73;;
74267;SDS011;62638;51.362;12.472;2023-04-21T05:14:32;12.75;;;6.65;;
74267;SDS011;62638;51.362;12.472;2023-04-21T05:16:57;12.70;;;5.70;;
74267;SDS011;62638;51.362;12.472;2023-04-21T05:19:22;17.40;;;6.30;;
74267;SDS011;62638;51.362;12.472;2023-04-21T05:21:47;10.57;;;5.63;;
74267;SDS011;62638;51.362;12.472;2023-04-21T05:24:13;15.40;;;6.43;;
74267;SDS011;62638;51.362;12.472;2023-04-21T05:26:38;13.40;;;6.70;;
74267;SDS011;62638;51.362;12.472;2023-04-21T05:29:03;16.25;;;6.70;;
74267;SDS011;62638;51.362;12.472;2023-04-21T05:31:28;10.87;;;6.20;;
74267;SDS011;62638;51.362;12.472;2023-04-21T05:33:54;14.52;;;6.65;;
74267;SDS011;62638;51.362;12.472;2023-04-21T05:36:19;17.37;;;7.80;;
74267;SDS011;62638;51.362;12.472;2023-04-21T05:38:44;10.50;;;5.97;;
74267;SDS011;62638;51.362;12.472;2023-04-21T05:41:10;9.73;;;5.43;;
74267;SDS011;62638;51.362;12.472;2023-04-21T05:43:35;15.37;;;7.03;;
74267;SDS011;62638;51.362;12.472;2023-04-21T05:46:01;11.90;;;6.53;;
74267;SDS011;62638;51.362;12.472;2023-04-21T05:48:26;9.65;;;5.78;;
74267;SDS011;62638;51.362;12.472;2023-04-21T05:50:52;9.30;;;5.55;;
74267;SDS011;62638;51.362;12.472;2023-04-21T05:53:18;13.65;;;6.28;;
74267;SDS011;62638;51.362;12.472;2023-04-21T05:55:43;10.40;;;6.07;;
74267;SDS011;62638;51.362;12.472;2023-04-21T05:58:09;13.83;;;6.20;;
74267;SDS011;62638;51.362;12.472;2023-04-21T06:00:34;10.97;;;5.60;;
74267;SDS011;62638;51.362;12.472;2023-04-21T06:02:59;12.60;;;6.53;;
74267;SDS011;62638;51.362;12.472;2023-04-21T06:05:24;14.53;;;5.53;;
74267;SDS011;62638;51.362;12.472;2023-04-21T06:07:50;12.10;;;6.60;;
74267;SDS011;62638;51.362;12.472;2023-04-21T06:10:15;10.13;;;5.17;;
74267;SDS011;62638;51.362;12.472;2023-04-21T06:12:41;13.48;;;5.57;;
74267;SDS011;62638;51.362;12.472;2023-04-21T06:15:07;9.23;;;5.13;;
74267;SDS011;62638;51.362;12.472;2023-04-21T06:17:32;9.38;;;4.40;;
74267;SDS011;62638;51.362;12.472;2023-04-21T06:19:58;10.53;;;5.93;;
74267;SDS011;62638;51.362;12.472;2023-04-21T06:22:23;9.17;;;5.77;;
74267;SDS011;62638;51.362;12.472;2023-04-21T06:24:49;12.27;;;5.53;;
74267;SDS011;62638;51.362;12.472;2023-04-21T06:27:15;10.23;;;6.07;;
74267;SDS011;62638;51.362;12.472;2023-04-21T06:29:41;17.08;;;5.72;;
74267;SDS011;62638;51.362;12.472;2023-04-21T06:32:06;10.57;;;5.18;;
74267;SDS011;62638;51.362;12.472;2023-04-21T06:34:32;12.57;;;5.10;;
74267;SDS011;62638;51.362;12.472;2023-04-21T06:36:57;10.07;;;5.13;;
74267;SDS011;62638;51.362;12.472;2023-04-21T06:39:22;12.20;;;6.07;;
74267;SDS011;62638;51.362;12.472;2023-04-21T06:41:47;10.88;;;5.35;;
74267;SDS011;62638;51.362;12.472;2023-04-21T06:44:13;9.37;;;4.47;;
74267;SDS011;62638;51.362;12.472;2023-04-21T06:46:41;11.10;;;5.83;;
74267;SDS011;62638;51.362;12.472;2023-04-21T06:49:07;12.20;;;6.15;;
74267;SDS011;62638;51.362;12.472;2023-04-21T06:51:32;10.65;;;5.70;;
74267;SDS011;62638;51.362;12.472;2023-04-21T06:53:58;14.38;;;6.07;;
74267;SDS011;62638;51.362;12.472;2023-04-21T06:56:25;9.80;;;4.72;;
74267;SDS011;62638;51.362;12.472;2023-04-21T06:58:54;10.27;;;4.70;;
74267;SDS011;62638;51.362;12.472;2023-04-21T07:01:20;15.55;;;5.65;;
74267;SDS011;62638;51.362;12.472;2023-04-21T07:03:45;8.32;;;5.68;;
74267;SDS011;62638;51.362;12.472;2023-04-21T07:06:11;10.13;;;5.13;;
74267;SDS011;62638;51.362;12.472;2023-04-21T07:08:36;12.50;;;5.40;;
74267;SDS011;62638;51.362;12.472;2023-04-21T07:11:02;11.40;;;4.82;;
74267;SDS011;62638;51.362;12.472;2023-04-21T07:13:27;8.05;;;4.88;;
74267;SDS011;62638;51.362;12.472;2023-04-21T07:15:53;7.40;;;4.68;;
74267;SDS011;62638;51.362;12.472;2023-04-21T07:18:18;8.75;;;4.93;;
74267;SDS011;62638;51.362;12.472;2023-04-21T07:20:44;7.72;;;4.50;;
74267;SDS011;62638;51.362;12.472;2023-04-21T07:23:09;9.02;;;4.43;;
74267;SDS011;62638;51.362;12.472;2023-04-21T07:25:34;7.90;;;4.60;;
74267;SDS011;62638;51.362;12.472;2023-04-21T07:28:00;7.13;;;4.05;;
74267;SDS011;62638;51.362;12.472;2023-04-21T07:30:27;5.47;;;3.97;;
74267;SDS011;62638;51.362;12.472;2023-04-21T07:32:53;6.03;;;4.43;;
74267;SDS011;62638;51.362;12.472;2023-04-21T07:35:18;11.20;;;4.40;;
74267;SDS011;62638;51.362;12.472;2023-04-21T07:37:43;11.17;;;5.20;;
74267;SDS011;62638;51.362;12.472;2023-04-21T07:40:09;10.37;;;4.17;;
74267;SDS011;62638;51.362;12.472;2023-04-21T07:42:34;8.25;;;3.90;;
74267;SDS011;62638;51.362;12.472;2023-04-21T07:45:00;8.43;;;4.55;;
74267;SDS011;62638;51.362;12.472;2023-04-21T07:47:26;10.20;;;4.22;;
74267;SDS011;62638;51.362;12.472;2023-04-21T07:49:52;13.20;;;4.88;;
74267;SDS011;62638;51.362;12.472;2023-04-21T07:52:17;9.43;;;5.13;;
74267;SDS011;62638;51.362;12.472;2023-04-21T07:54:42;7.18;;;3.92;;
74267;SDS011;62638;51.362;12.472;2023-04-21T07:57:07;7.83;;;5.23;;
74267;SDS011;62638;51.362;12.472;2023-04-21T07:59:34;10.55;;;5.30;;
74267;SDS011;62638;51.362;12.472;2023-04-21T08:01:59;11.23;;;4.27;;
74267;SDS011;62638;51.362;12.472;2023-04-21T08:04:25;7.78;;;4.43;;
74267;SDS011;62638;51.362;12.472;2023-04-21T08:06:50;11.40;;;5.17;;
74267;SDS011;62638;51.362;12.472;2023-04-21T08:09:15;6.87;;;4.10;;
74267;SDS011;62638;51.362;12.472;2023-04-21T08:11:41;9.70;;;5.20;;
74267;SDS011;62638;51.362;12.472;2023-04-21T08:14:06;9.73;;;4.80;;
74267;SDS011;62638;51.362;12.472;2023-04-21T08:16:33;8.90;;;4.95;;
74267;SDS011;62638;51.362;12.472;2023-04-21T08:18:58;6.38;;;3.92;;
74267;SDS011;62638;51.362;12.472;2023-04-21T08:21:24;7.20;;;3.65;;
74267;SDS011;62638;51.362;12.472;2023-04-21T08:23:49;10.17;;;4.43;;
74267;SDS011;62638;51.362;12.472;2023-04-21T08:26:15;9.10;;;4.80;;
74267;SDS011;62638;51.362;12.472;2023-04-21T08:28:40;21.73;;;4.85;;
74267;SDS011;62638;51.362;12.472;2023-04-21T08:31:05;7.27;;;4.13;;
74267;SDS011;62638;51.362;12.472;2023-04-21T08:33:30;6.43;;;3.33;;
74267;SDS011;62638;51.362;12.472;2023-04-21T08:35:56;6.88;;;4.55;;
74267;SDS011;62638;51.362;12.472;2023-04-21T08:38:21;9.75;;;3.53;;
74267;SDS011;62638;51.362;12.472;2023-04-21T08:40:47;6.82;;;4.10;;
74267;SDS011;62638;51.362;12.472;2023-04-21T08:43:13;7.45;;;3.63;;
74267;SDS011;62638;51.362;12.472;2023-04-21T08:45:38;5.82;;;3.55;;
74267;SDS011;62638;51.362;12.472;2023-04-21T08:48:05;6.45;;;3.97;;
74267;SDS011;62638;51.362;12.472;2023-04-21T08:50:31;8.73;;;4.20;;
74267;SDS011;62638;51.362;12.472;2023-04-21T08:52:58;6.32;;;4.13;;
74267;SDS011;62638;51.362;12.472;2023-04-21T08:55:29;8.02;;;4.05;;
74267;SDS011;62638;51.362;12.472;2023-04-21T08:57:56;6.68;;;3.70;;
74267;SDS011;62638;51.362;12.472;2023-04-21T09:00:22;6.97;;;3.38;;
74267;SDS011;62638;51.362;12.472;2023-04-21T09:02:54;9.10;;;3.75;;
74267;SDS011;62638;51.362;12.472;2023-04-21T09:05:24;7.70;;;3.42;;
74267;SDS011;62638;51.362;12.472;2023-04-21T09:07:52;6.18;;;3.22;;
74267;SDS011;62638;51.362;12.472;2023-04-21T09:10:30;4.32;;;2.72;;
74267;SDS011;62638;51.362;12.472;2023-04-21T09:12:56;5.20;;;3.67;;
74267;SDS011;62638;51.362;12.472;2023-04-21T09:15:21;6.57;;;3.43;;
74267;SDS011;62638;51.362;12.472;2023-04-21T09:17:46;8.18;;;3.47;;
74267;SDS011;62638;51.362;12.472;2023-04-21T09:20:20;6.78;;;3.13;;
74267;SDS011;62638;51.362;12.472;2023-04-21T09:22:49;8.75;;;3.58;;
74267;SDS011;62638;51.362;12.472;2023-04-21T09:25:15;6.30;;;3.40;;
74267;SDS011;62638;51.362;12.472;2023-04-21T09:27:43;6.18;;;2.90;;
74267;SDS011;62638;51.362;12.472;2023-04-21T09:30:09;6.43;;;3.53;;
74267;SDS011;62638;51.362;12.472;2023-04-21T09:32:36;5.68;;;3.17;;
74267;SDS011;62638;51.362;12.472;2023-04-21T09:35:02;6.07;;;3.35;;
74267;SDS011;62638;51.362;12.472;2023-04-21T09:37:30;6.72;;;3.45;;
74267;SDS011;62638;51.362;12.472;2023-04-21T09:39:58;5.03;;;2.53;;
74267;SDS011;62638;51.362;12.472;2023-04-21T09:42:30;4.00;;;2.67;;
74267;SDS011;62638;51.362;12.472;2023-04-21T09:44:56;6.40;;;3.20;;
74267;SDS011;62638;51.362;12.472;2023-04-21T09:47:22;6.32;;;3.08;;
74267;SDS011;62638;51.362;12.472;2023-04-21T09:49:50;5.57;;;2.70;;
74267;SDS011;62638;51.362;12.472;2023-04-21T09:52:16;4.55;;;2.38;;
74267;SDS011;62638;51.362;12.472;2023-04-21T09:54:48;10.00;;;3.30;;
74267;SDS011;62638;51.362;12.472;2023-04-21T09:57:25;4.70;;;2.88;;
74267;SDS011;62638;51.362;12.472;2023-04-21T09:59:55;6.15;;;2.42;;
74267;SDS011;62638;51.362;12.472;2023-04-21T10:02:25;4.68;;;1.95;;
74267;SDS011;62638;51.362;12.472;2023-04-21T10:04:54;4.13;;;2.72;;
74267;SDS011;62638;51.362;12.472;2023-04-21T10:07:19;5.93;;;2.33;;
74267;SDS011;62638;51.362;12.472;2023-04-21T10:09:46;3.83;;;1.83;;
74267;SDS011;62638;51.362;12.472;2023-04-21T10:12:15;4.75;;;2.78;;
74267;SDS011;62638;51.362;12.472;2023-04-21T10:14:42;5.35;;;2.45;;
74267;SDS011;62638;51.362;12.472;2023-04-21T10:17:08;4.57;;;2.50;;
74267;SDS011;62638;51.362;12.472;2023-04-21T10:19:35;4.47;;;2.55;;
74267;SDS011;62638;51.362;12.472;2023-04-21T10:22:07;5.88;;;2.70;;
74267;SDS011;62638;51.362;12.472;2023-04-21T10:24:40;6.82;;;2.47;;
74267;SDS011;62638;51.362;12.472;2023-04-21T10:27:10;4.90;;;2.70;;
74267;SDS011;62638;51.362;12.472;2023-04-21T10:29:36;4.65;;;2.35;;
74267;SDS011;62638;51.362;12.472;2023-04-21T10:32:02;6.18;;;3.03;;
74267;SDS011;62638;51.362;12.472;2023-04-21T10:34:28;4.85;;;1.80;;
74267;SDS011;62638;51.362;12.472;2023-04-21T10:39:30;8.37;;;3.03;;
74267;SDS011;62638;51.362;12.472;2023-04-21T10:44:44;5.20;;;2.92;;
74267;SDS011;62638;51.362;12.472;2023-04-21T10:47:25;6.75;;;3.25;;
74267;SDS011;62638;51.362;12.472;2023-04-21T10:49:57;4.25;;;2.90;;
74267;SDS011;62638;51.362;12.472;2023-04-21T10:52:30;5.38;;;2.67;;
74267;SDS011;62638;51.362;12.472;2023-04-21T10:57:22;5.33;;;2.63;;
74267;SDS011;62638;51.362;12.472;2023-04-21T10:59:47;9.67;;;3.33;;
74267;SDS011;62638;51.362;12.472;2023-04-21T11:02:16;6.07;;;2.97;;
74267;SDS011;62638;51.362;12.472;2023-04-21T11:04:43;4.82;;;3.10;;
74267;SDS011;62638;51.362;12.472;2023-04-21T11:07:15;5.70;;;3.08;;
74267;SDS011;62638;51.362;12.472;2023-04-21T11:09:42;6.68;;;3.28;;
74267;SDS011;62638;51.362;12.472;2023-04-21T11:12:09;4.97;;;3.10;;
74267;SDS011;62638;51.362;12.472;2023-04-21T11:14:39;5.40;;;3.08;;
74267;SDS011;62638;51.362;12.472;2023-04-21T11:17:12;6.32;;;3.15;;
74267;SDS011;62638;51.362;12.472;2023-04-21T11:19:39;5.20;;;3.42;;
74267;SDS011;62638;51.362;12.472;2023-04-21T11:22:10;7.07;;;2.92;;
74267;SDS011;62638;51.362;12.472;2023-04-21T11:24:35;8.13;;;3.57;;
74267;SDS011;62638;51.362;12.472;2023-04-21T11:27:01;7.93;;;4.10;;
74267;SDS011;62638;51.362;12.472;2023-04-21T11:29:26;6.60;;;2.95;;
74267;SDS011;62638;51.362;12.472;2023-04-21T11:31:53;5.68;;;2.95;;
74267;SDS011;62638;51.362;12.472;2023-04-21T11:34:20;5.45;;;3.20;;
74267;SDS011;62638;51.362;12.472;2023-04-21T11:36:46;5.95;;;3.33;;
74267;SDS011;62638;51.362;12.472;2023-04-21T11:39:14;4.63;;;2.88;;
74267;SDS011;62638;51.362;12.472;2023-04-21T11:41:42;8.35;;;3.33;;
74267;SDS011;62638;51.362;12.472;2023-04-21T11:44:09;9.73;;;2.50;;
74267;SDS011;62638;51.362;12.472;2023-04-21T11:46:35;3.53;;;2.35;;
74267;SDS011;62638;51.362;12.472;2023-04-21T11:51:31;3.33;;;2.17;;
74267;SDS011;62638;51.362;12.472;2023-04-21T11:54:03;8.95;;;2.95;;
74267;SDS011;62638;51.362;12.472;2023-04-21T11:56:33;4.20;;;3.00;;
74267;SDS011;62638;51.362;12.472;2023-04-21T11:59:04;5.50;;;2.67;;
74267;SDS011;62638;51.362;12.472;2023-04-21T12:01:30;4.95;;;2.20;;
74267;SDS011;62638;51.362;12.472;2023-04-21T12:03:58;5.67;;;2.30;;
74267;SDS011;62638;51.362;12.472;2023-04-21T12:06:25;3.40;;;2.20;;
74267;SDS011;62638;51.362;12.472;2023-04-21T12:08:59;3.65;;;2.45;;
74267;SDS011;62638;51.362;12.472;2023-04-21T12:11:26;4.82;;;2.63;;
74267;SDS011;62638;51.362;12.472;2023-04-21T12:13:55;4.68;;;2.60;;
74267;SDS011;62638;51.362;12.472;2023-04-21T12:16:20;4.72;;;2.10;;
74267;SDS011;62638;51.362;12.472;2023-04-21T12:18:46;3.87;;;2.47;;
74267;SDS011;62638;51.362;12.472;2023-04-21T12:21:13;3.03;;;2.33;;
74267;SDS011;62638;51.362;12.472;2023-04-21T12:26:05;3.67;;;2.63;;
74267;SDS011;62638;51.362;12.472;2023-04-21T12:28:30;3.30;;;1.87;;
74267;SDS011;62638;51.362;12.472;2023-04-21T12:30:55;3.22;;;2.05;;
74267;SDS011;62638;51.362;12.472;2023-04-21T12:33:21;5.93;;;2.10;;
74267;SDS011;62638;51.362;12.472;2023-04-21T12:35:46;2.17;;;1.63;;
74267;SDS011;62638;51.362;12.472;2023-04-21T12:38:11;5.43;;;2.15;;
74267;SDS011;62638;51.362;12.472;2023-04-21T12:40:38;8.23;;;2.20;;
74267;SDS011;62638;51.362;12.472;2023-04-21T12:43:03;3.13;;;1.90;;
74267;SDS011;62638;51.362;12.472;2023-04-21T12:45:28;2.33;;;1.90;;
74267;SDS011;62638;51.362;12.472;2023-04-21T12:47:55;2.63;;;1.70;;
74267;SDS011;62638;51.362;12.472;2023-04-21T12:50:22;4.80;;;1.67;;
74267;SDS011;62638;51.362;12.472;2023-04-21T12:52:47;2.87;;;1.57;;
74267;SDS011;62638;51.362;12.472;2023-04-21T12:55:15;6.00;;;1.85;;
74267;SDS011;62638;51.362;12.472;2023-04-21T12:57:41;4.25;;;2.30;;
74267;SDS011;62638;51.362;12.472;2023-04-21T13:00:06;2.30;;;1.70;;
74267;SDS011;62638;51.362;12.472;2023-04-21T13:02:32;4.00;;;2.03;;
74267;SDS011;62638;51.362;12.472;2023-04-21T13:05:00;3.13;;;1.75;;
74267;SDS011;62638;51.362;12.472;2023-04-21T13:07:26;4.15;;;2.17;;
74267;SDS011;62638;51.362;12.472;2023-04-21T13:09:55;4.60;;;2.30;;
74267;SDS011;62638;51.362;12.472;2023-04-21T13:12:20;2.85;;;2.00;;
74267;SDS011;62638;51.362;12.472;2023-04-21T13:14:46;5.17;;;1.83;;
74267;SDS011;62638;51.362;12.472;2023-04-21T13:17:11;2.97;;;1.50;;
74267;SDS011;62638;51.362;12.472;2023-04-21T13:19:37;4.57;;;2.10;;
74267;SDS011;62638;51.362;12.472;2023-04-21T13:22:02;4.20;;;2.17;;
74267;SDS011;62638;51.362;12.472;2023-04-21T13:24:27;3.33;;;1.90;;
74267;SDS011;62638;51.362;12.472;2023-04-21T13:26:53;2.83;;;2.17;;
74267;SDS011;62638;51.362;12.472;2023-04-21T13:29:18;4.83;;;2.37;;
74267;SDS011;62638;51.362;12.472;2023-04-21T13:31:43;4.90;;;1.87;;
74267;SDS011;62638;51.362;12.472;2023-04-21T13:34:09;3.92;;;1.75;;
74267;SDS011;62638;51.362;12.472;2023-04-21T13:36:34;3.35;;;2.00;;
74267;SDS011;62638;51.362;12.472;2023-04-21T13:39:00;6.17;;;2.10;;
74267;SDS011;62638;51.362;12.472;2023-04-21T13:41:25;3.28;;;1.63;;
74267;SDS011;62638;51.362;12.472;2023-04-21T13:43:50;3.93;;;1.57;;
74267;SDS011;62638;51.362;12.472;2023-04-21T13:46:16;7.07;;;1.45;;
74267;SDS011;62638;51.362;12.472;2023-04-21T13:48:41;2.30;;;1.80;;
74267;SDS011;62638;51.362;12.472;2023-04-21T13:53:34;4.28;;;1.92;;
74267;SDS011;62638;51.362;12.472;2023-04-21T13:56:00;3.17;;;1.80;;
74267;SDS011;62638;51.362;12.472;2023-04-21T13:58:25;2.57;;;1.50;;
74267;SDS011;62638;51.362;12.472;2023-04-21T14:00:50;3.93;;;1.70;;
74267;SDS011;62638;51.362;12.472;2023-04-21T14:03:15;4.03;;;1.60;;
74267;SDS011;62638;51.362;12.472;2023-04-21T14:05:41;5.83;;;1.63;;
74267;SDS011;62638;51.362;12.472;2023-04-21T14:08:06;3.00;;;1.50;;
74267;SDS011;62638;51.362;12.472;2023-04-21T14:10:31;5.60;;;2.22;;
74267;SDS011;62638;51.362;12.472;2023-04-21T14:12:57;4.55;;;1.67;;
74267;SDS011;62638;51.362;12.472;2023-04-21T14:15:23;7.70;;;2.43;;
74267;SDS011;62638;51.362;12.472;2023-04-21T14:17:50;8.60;;;2.13;;
74267;SDS011;62638;51.362;12.472;2023-04-21T14:20:16;4.45;;;1.75;;
74267;SDS011;62638;51.362;12.472;2023-04-21T14:22:41;4.22;;;1.73;;
74267;SDS011;62638;51.362;12.472;2023-04-21T14:25:07;3.05;;;1.45;;
74267;SDS011;62638;51.362;12.472;2023-04-21T14:27:33;3.10;;;1.65;;
74267;SDS011;62638;51.362;12.472;2023-04-21T14:29:58;3.85;;;1.60;;
74267;SDS011;62638;51.362;12.472;2023-04-21T14:32:24;2.53;;;1.95;;
74267;SDS011;62638;51.362;12.472;2023-04-21T14:34:49;4.03;;;1.88;;
74267;SDS011;62638;51.362;12.472;2023-04-21T14:37:17;3.35;;;1.77;;